This is the latest recevied weather packets stored in our database for station/object XE2B-20. If no packets are shown the sender has not sent any weather packets the latest 10 day(s).
| Time | Temp. | Humidity | Pressure | Rain* | Wind** | Luminosity | Snow |
|---|---|---|---|---|---|---|---|
| 1777773185 | 25° C | 15% | 803.5 hPa | - | - | - | - |
| 1777771682 | 26.11° C | 15% | 803.1 hPa | - | - | - | - |
| 1777770184 | 27.22° C | 15% | 802.9 hPa | - | - | - | - |
| 1777768685 | 28.33° C | 14% | 802.7 hPa | - | - | - | - |
| 1777767186 | 29.44° C | 14% | 802.4 hPa | - | - | - | - |
| 1777765688 | 30.56° C | 13% | 802.1 hPa | - | - | - | - |
| 1777764190 | 31.11° C | 13% | 801.9 hPa | - | - | - | - |
| 1777762690 | 32.22° C | 13% | 802 hPa | - | - | - | - |
| 1777761193 | 32.78° C | 13% | 801.8 hPa | - | - | - | - |
| 1777759699 | 33.33° C | 13% | 802.1 hPa | - | - | - | - |
| 1777758195 | 33.33° C | 13% | 802.1 hPa | - | - | - | - |
| 1777756697 | 33.33° C | 13% | 802.3 hPa | - | - | - | - |
| 1777755198 | 33.33° C | 14% | 802.5 hPa | - | - | - | - |
| 1777753701 | 33.33° C | 14% | 802.7 hPa | - | - | - | - |
| 1777752202 | 33.33° C | 14% | 803.3 hPa | - | - | - | - |
| 1777750703 | 32.78° C | 13% | 803.6 hPa | - | - | - | - |
| 1777749203 | 32.78° C | 14% | 804 hPa | - | - | - | - |
| 1777747704 | 32.22° C | 15% | 804.1 hPa | - | - | - | - |
| 1777746204 | 31.67° C | 14% | 804.5 hPa | - | - | - | - |
| 1777744705 | 31.11° C | 15% | 804.9 hPa | - | - | - | - |
| 1777743206 | 31.11° C | 16% | 805.2 hPa | - | - | - | - |
| 1777741706 | 30° C | 16% | 805.4 hPa | - | - | - | - |
| 1777740207 | 30° C | 16% | 805.5 hPa | - | - | - | - |
| 1777738709 | 30.56° C | 16% | 805.4 hPa | - | - | - | - |
| 1777737210 | 30.56° C | 16% | 805.5 hPa | - | - | - | - |
* Rain since midnight (hover to see other rain measurements)
** Current wind speed in m/s (hover to see current wind gust speed)